Time;durP1;ratioP1;P1;durP2;ratioP2;P2;SDS_P1;SDS_P2;PMS_P1;PMS_P2;Temp;Humidity;BMP_temperature;BMP_pressure;BME280_temperature;BME280_humidity;BME280_pressure;Samples;Min_cycle;Max_cycle;Signal;HPM_P1;HPM_P2
2022/07/12 00:01:06;;;;;;;3.97;0.77;;;12.50;81.10;;;;;;5072419;28;20037;-42
2022/07/12 00:03:33;;;;;;;1.25;0.60;;;12.40;80.90;;;;;;5110048;28;20377;-43
2022/07/12 00:05:58;;;;;;;1.35;0.88;;;12.40;81.20;;;;;;5073469;28;20032;-45
2022/07/12 00:08:24;;;;;;;4.13;1.20;;;12.30;81.80;;;;;;5109219;28;20635;-43
2022/07/12 00:10:50;;;;;;;1.00;0.88;;;12.30;83.00;;;;;;5073960;28;20112;-46
2022/07/12 00:13:15;;;;;;;0.95;0.70;;;12.20;85.60;;;;;;5107869;28;20063;-47
2022/07/12 00:15:42;;;;;;;3.13;0.90;;;12.20;84.80;;;;;;5067974;28;20036;-45
2022/07/12 00:18:09;;;;;;;1.23;0.80;;;12.20;87.30;;;;;;5109725;28;20036;-42
2022/07/12 00:20:35;;;;;;;0.85;0.85;;;12.10;87.80;;;;;;5076270;28;20037;-44
2022/07/12 00:23:01;;;;;;;1.17;0.70;;;12.00;88.10;;;;;;5109645;28;20035;-47
2022/07/12 00:25:27;;;;;;;3.17;0.75;;;12.00;89.70;;;;;;5077482;28;20031;-53
2022/07/12 00:27:52;;;;;;;2.15;0.85;;;11.90;88.50;;;;;;5091365;28;20024;-43
2022/07/12 00:30:18;;;;;;;1.55;0.70;;;11.90;88.70;;;;;;5107923;28;20069;-44
2022/07/12 00:32:44;;;;;;;2.47;0.68;;;11.90;89.80;;;;;;5090876;28;20032;-47
2022/07/12 00:35:10;;;;;;;1.48;0.80;;;11.80;88.50;;;;;;5107726;28;20051;-51
2022/07/12 00:37:35;;;;;;;3.03;0.60;;;11.80;90.10;;;;;;5090996;28;20393;-48
2022/07/12 00:40:02;;;;;;;0.80;0.70;;;11.80;90.40;;;;;;5107828;28;20027;-49
2022/07/12 00:42:28;;;;;;;1.20;0.60;;;11.70;90.00;;;;;;5090462;28;20036;-52
2022/07/12 00:44:53;;;;;;;1.48;0.90;;;11.70;90.50;;;;;;5107717;28;20077;-50
2022/07/12 00:47:32;;;;;;;2.13;0.80;;;11.70;92.00;;;;;;5110691;28;20031;-46
2022/07/12 00:49:59;;;;;;;2.47;1.10;;;11.60;91.00;;;;;;5082989;28;20083;-46
2022/07/12 00:52:24;;;;;;;2.72;0.98;;;11.60;91.10;;;;;;5090490;28;20056;-51
2022/07/12 00:54:50;;;;;;;1.40;0.93;;;11.60;91.00;;;;;;5107494;28;20571;-46
2022/07/12 00:57:15;;;;;;;1.63;0.60;;;11.60;91.50;;;;;;5110422;28;20055;-49
2022/07/12 00:59:41;;;;;;;2.30;0.80;;;11.60;91.20;;;;;;5093396;28;20022;-48
2022/07/12 01:02:07;;;;;;;3.10;0.90;;;11.50;91.60;;;;;;5110250;28;20041;-43
2022/07/12 01:04:34;;;;;;;2.63;1.40;;;11.50;91.40;;;;;;5092443;28;20028;-43
2022/07/12 01:06:59;;;;;;;3.45;1.00;;;11.40;92.00;;;;;;5109972;28;20106;-46
2022/07/12 01:09:25;;;;;;;3.20;1.10;;;11.40;92.00;;;;;;5091034;28;20114;-45
2022/07/12 01:11:50;;;;;;;1.67;0.90;;;11.40;92.90;;;;;;5110176;28;20026;-47
2022/07/12 01:14:16;;;;;;;1.67;0.95;;;11.40;92.60;;;;;;5087390;28;20049;-47
2022/07/12 01:16:43;;;;;;;2.05;1.50;;;11.30;92.60;;;;;;5069309;28;20082;-47
2022/07/12 01:19:10;;;;;;;2.50;1.65;;;11.30;92.80;;;;;;5106622;28;20031;-46
2022/07/12 01:21:38;;;;;;;2.38;1.33;;;11.30;92.80;;;;;;5108296;28;20080;-45
2022/07/12 01:24:07;;;;;;;3.25;1.48;;;11.30;92.90;;;;;;5088116;28;20115;-46
2022/07/12 01:26:33;;;;;;;3.72;1.30;;;11.20;92.90;;;;;;5102133;28;20035;-49
2022/07/12 01:28:59;;;;;;;2.92;1.50;;;11.20;93.90;;;;;;5106207;28;20406;-45
2022/07/12 01:31:25;;;;;;;1.30;1.02;;;11.20;93.70;;;;;;5108162;28;20047;-46
2022/07/12 01:33:50;;;;;;;2.65;1.38;;;11.20;94.00;;;;;;5089817;28;20395;-45
2022/07/12 01:36:17;;;;;;;1.60;1.35;;;11.20;93.90;;;;;;5068126;28;20408;-45
2022/07/12 01:38:42;;;;;;;2.53;1.65;;;11.10;94.50;;;;;;5108348;28;20116;-48
2022/07/12 01:41:08;;;;;;;3.53;1.58;;;11.10;94.20;;;;;;5069241;28;20121;-46
2022/07/12 01:43:34;;;;;;;3.00;1.38;;;11.10;94.20;;;;;;5108232;28;20483;-43
2022/07/12 01:45:59;;;;;;;2.45;1.60;;;11.00;94.50;;;;;;5070751;28;20090;-46
2022/07/12 01:48:25;;;;;;;2.25;1.30;;;11.00;94.50;;;;;;5107857;28;20044;-44
2022/07/12 01:50:50;;;;;;;3.63;1.88;;;11.00;94.60;;;;;;5071852;28;20033;-46
2022/07/12 01:53:16;;;;;;;1.60;1.50;;;11.00;95.00;;;;;;5105693;28;20337;-48
2022/07/12 01:55:42;;;;;;;1.83;1.45;;;10.90;95.60;;;;;;5077057;28;20040;-46
2022/07/12 01:58:07;;;;;;;2.33;1.50;;;11.00;95.50;;;;;;5107781;28;20028;-48
2022/07/12 02:00:33;;;;;;;3.42;1.45;;;10.90;95.90;;;;;;5074279;28;20029;-44
2022/07/12 02:02:59;;;;;;;1.70;1.27;;;10.90;95.60;;;;;;5107658;28;20028;-43
2022/07/12 02:05:25;;;;;;;3.58;1.70;;;10.90;95.50;;;;;;5075280;28;20051;-43
2022/07/12 02:07:51;;;;;;;3.72;2.10;;;10.80;95.80;;;;;;5107855;28;20036;-47
2022/07/12 02:10:17;;;;;;;1.25;1.15;;;10.80;95.80;;;;;;5098037;28;20024;-41
2022/07/12 02:12:42;;;;;;;3.78;1.20;;;10.80;95.70;;;;;;5089225;28;20038;-46
2022/07/12 02:15:08;;;;;;;2.28;1.10;;;10.70;96.00;;;;;;5102044;28;20031;-46
2022/07/12 02:17:34;;;;;;;2.33;1.30;;;10.70;96.20;;;;;;5089226;28;20060;-46
2022/07/12 02:20:00;;;;;;;1.65;1.20;;;10.70;95.80;;;;;;5106023;28;20035;-43
2022/07/12 02:22:25;;;;;;;1.73;1.30;;;10.60;96.30;;;;;;5089421;28;20047;-50
2022/07/12 02:24:51;;;;;;;2.58;1.30;;;10.60;96.80;;;;;;5102420;28;20495;-46
2022/07/12 02:27:16;;;;;;;3.40;1.20;;;10.60;98.90;;;;;;5096236;28;20023;-45
2022/07/12 02:29:42;;;;;;;2.67;1.00;;;10.50;97.80;;;;;;5105821;28;20088;-43
2022/07/12 02:32:07;;;;;;;1.95;1.20;;;10.50;97.60;;;;;;5108952;28;20042;-49
2022/07/12 02:34:33;;;;;;;1.17;1.08;;;10.50;97.70;;;;;;5096188;28;20076;-46
2022/07/12 02:36:59;;;;;;;1.80;0.98;;;10.50;97.90;;;;;;5112998;28;20039;-49
2022/07/12 02:39:25;;;;;;;1.63;1.15;;;10.40;97.50;;;;;;5094495;28;20084;-47
2022/07/12 02:41:50;;;;;;;3.35;1.42;;;10.40;97.60;;;;;;5112980;28;20453;-45
2022/07/12 02:44:16;;;;;;;2.92;1.00;;;10.40;98.00;;;;;;5093642;28;20032;-49
2022/07/12 02:46:42;;;;;;;1.58;1.10;;;10.40;97.80;;;;;;5113016;28;20117;-51
2022/07/12 02:49:07;;;;;;;0.80;0.73;;;10.30;97.90;;;;;;5092282;28;20028;-48
2022/07/12 02:51:32;;;;;;;2.35;1.42;;;10.30;98.00;;;;;;5113095;28;20020;-45
2022/07/12 02:53:59;;;;;;;2.08;0.70;;;10.30;97.90;;;;;;5090972;28;20028;-45
2022/07/12 02:56:25;;;;;;;2.38;1.00;;;10.30;98.40;;;;;;5112732;28;20023;-48
2022/07/12 02:58:50;;;;;;;1.05;0.80;;;10.30;98.50;;;;;;5092831;28;20030;-47
2022/07/12 03:01:16;;;;;;;2.25;1.17;;;10.20;98.30;;;;;;5076783;28;20396;-46
2022/07/12 03:03:41;;;;;;;1.75;0.98;;;10.30;98.50;;;;;;5078630;28;20036;-47
2022/07/12 03:06:07;;;;;;;2.60;0.90;;;10.20;98.80;;;;;;5095996;28;20119;-45
2022/07/12 03:08:32;;;;;;;1.83;1.10;;;10.20;99.30;;;;;;5074840;28;20491;-47
2022/07/12 03:10:58;;;;;;;1.48;1.00;;;10.20;99.00;;;;;;5084762;28;20077;-45
2022/07/12 03:13:23;;;;;;;1.85;1.02;;;10.20;99.20;;;;;;5096068;28;20029;-46
2022/07/12 03:15:50;;;;;;;1.83;0.88;;;10.20;99.00;;;;;;5076934;28;20032;-50
2022/07/12 03:18:16;;;;;;;2.20;1.08;;;10.20;99.10;;;;;;5069106;28;20028;-45
2022/07/12 03:20:42;;;;;;;4.18;1.45;;;10.20;99.40;;;;;;5078998;28;20031;-46
2022/07/12 03:23:08;;;;;;;1.58;1.10;;;10.20;99.80;;;;;;5093172;28;20039;-44
2022/07/12 03:25:33;;;;;;;1.65;1.17;;;10.20;99.70;;;;;;5087094;28;20514;-46
2022/07/12 03:27:59;;;;;;;1.73;1.17;;;10.20;99.70;;;;;;5077121;28;20052;-47
2022/07/12 03:30:25;;;;;;;2.50;1.30;;;10.20;99.80;;;;;;5102480;28;20048;-47
2022/07/12 03:32:50;;;;;;;3.70;1.45;;;10.30;99.60;;;;;;5098168;28;20111;-45
2022/07/12 03:35:16;;;;;;;1.10;0.90;;;10.30;99.90;;;;;;5090359;28;20032;-46
2022/07/12 03:37:48;;;;;;;2.08;1.10;;;10.30;99.90;;;;;;5107194;28;20063;-42
2022/07/12 03:40:15;;;;;;;1.35;1.10;;;10.40;99.70;;;;;;5069797;28;20028;-47
2022/07/12 03:42:42;;;;;;;2.08;1.13;;;10.40;99.80;;;;;;5108489;28;20031;-44
2022/07/12 03:45:08;;;;;;;1.42;1.27;;;10.50;99.70;;;;;;5091578;28;20032;-43
2022/07/12 03:47:37;;;;;;;1.13;1.02;;;10.60;99.70;;;;;;5109176;28;20462;-42
2022/07/12 03:50:07;;;;;;;1.90;1.40;;;11.10;99.90;;;;;;5111777;28;20015;-43
2022/07/12 03:52:33;;;;;;;3.17;1.30;;;12.00;99.70;;;;;;5096898;28;20023;-45
2022/07/12 03:55:01;;;;;;;2.05;1.20;;;12.90;96.30;;;;;;5111555;28;20016;-47
2022/07/12 03:57:27;;;;;;;0.80;0.80;;;13.80;93.20;;;;;;5096011;28;20031;-46
2022/07/12 03:59:53;;;;;;;0.75;0.75;;;14.70;90.40;;;;;;5111647;28;20084;-45
2022/07/12 04:02:19;;;;;;;1.80;1.05;;;15.50;85.60;;;;;;5095179;28;20399;-47
2022/07/12 04:04:44;;;;;;;1.17;0.90;;;16.30;78.60;;;;;;5111568;28;20026;-47
2022/07/12 04:07:10;;;;;;;1.48;1.00;;;17.00;73.90;;;;;;5093679;28;20030;-45
2022/07/12 04:09:36;;;;;;;1.45;0.88;;;17.70;71.60;;;;;;5111617;28;20437;-43
2022/07/12 04:12:02;;;;;;;0.82;0.82;;;18.40;67.00;;;;;;5092644;28;20396;-50
2022/07/12 04:14:31;;;;;;;1.80;1.00;;;19.00;62.00;;;;;;5091644;28;20031;-43
2022/07/12 04:16:57;;;;;;;0.98;0.82;;;19.60;60.50;;;;;;5108639;28;20034;-47
2022/07/12 04:19:31;;;;;;;0.80;0.80;;;20.10;57.10;;;;;;5111347;28;20481;-45
2022/07/12 04:21:57;;;;;;;0.77;0.70;;;20.70;55.20;;;;;;5073369;28;20032;-43
2022/07/12 04:24:23;;;;;;;1.05;0.80;;;21.10;51.50;;;;;;5097236;28;20031;-46
2022/07/12 04:26:48;;;;;;;1.38;0.95;;;21.70;49.00;;;;;;5097531;28;20111;-48
2022/07/12 04:29:18;;;;;;;1.17;0.80;;;22.10;45.50;;;;;;5111112;28;20023;-52
2022/07/12 04:31:44;;;;;;;2.13;1.08;;;22.50;44.00;;;;;;5088717;28;20043;-50
2022/07/12 04:34:09;;;;;;;1.40;0.73;;;23.00;42.10;;;;;;5111187;28;20085;-45
2022/07/12 04:36:35;;;;;;;0.70;0.60;;;23.40;40.00;;;;;;5091270;28;20024;-42
2022/07/12 04:39:00;;;;;;;0.77;0.60;;;23.90;36.60;;;;;;5108132;28;20600;-44
2022/07/12 04:41:26;;;;;;;0.65;0.65;;;24.40;33.90;;;;;;5108793;28;20122;-45
2022/07/12 04:43:51;;;;;;;0.65;0.60;;;24.80;31.40;;;;;;5089459;28;20035;-47
2022/07/12 04:46:17;;;;;;;1.48;0.70;;;25.20;29.80;;;;;;5070971;28;20037;-43
2022/07/12 04:48:42;;;;;;;3.10;0.70;;;25.60;27.60;;;;;;5109349;28;20421;-45
2022/07/12 04:51:08;;;;;;;2.40;0.73;;;26.10;26.50;;;;;;5071491;28;20029;-48
2022/07/12 04:53:34;;;;;;;0.65;0.50;;;26.40;24.30;;;;;;5109539;28;20088;-46
2022/07/12 04:55:59;;;;;;;0.50;0.50;;;26.90;22.50;;;;;;5071979;28;20025;-48
2022/07/12 04:58:24;;;;;;;1.25;0.57;;;27.20;21.00;;;;;;5109130;28;20122;-49
2022/07/12 05:00:50;;;;;;;1.73;0.75;;;27.60;19.20;;;;;;5074016;28;20041;-42
2022/07/12 05:03:16;;;;;;;0.90;0.60;;;27.90;17.70;;;;;;5108928;28;20089;-42
2022/07/12 05:05:42;;;;;;;1.55;0.60;;;28.30;16.30;;;;;;5074876;28;20036;-42
2022/07/12 05:08:08;;;;;;;1.88;0.40;;;28.70;15.50;;;;;;5108984;28;20027;-47
2022/07/12 05:10:34;;;;;;;0.63;0.35;;;29.10;13.90;;;;;;5076183;28;20408;-46
2022/07/12 05:13:00;;;;;;;0.65;0.50;;;29.50;13.10;;;;;;5109079;28;20057;-45
2022/07/12 05:15:25;;;;;;;1.38;0.60;;;29.70;11.30;;;;;;5072821;28;20560;-43
2022/07/12 05:17:50;;;;;;;1.25;0.70;;;30.00;9.90;;;;;;5108719;28;20031;-42
2022/07/12 05:20:16;;;;;;;2.47;0.60;;;30.30;8.70;;;;;;5098434;28;20042;-43
2022/07/12 05:22:41;;;;;;;1.35;0.60;;;30.60;7.50;;;;;;5090095;28;20047;-46
2022/07/12 05:25:08;;;;;;;1.77;0.70;;;30.90;6.70;;;;;;5102578;28;20122;-43
2022/07/12 05:27:34;;;;;;;0.98;0.63;;;31.20;5.80;;;;;;5105433;28;20066;-47
2022/07/12 05:30:00;;;;;;;0.70;0.50;;;31.50;4.70;;;;;;5095353;28;20081;-42
2022/07/12 05:32:25;;;;;;;0.88;0.80;;;31.90;4.10;;;;;;5109865;28;20027;-43
2022/07/12 05:34:51;;;;;;;2.13;0.65;;;32.00;2.80;;;;;;5094572;28;20024;-42
2022/07/12 05:37:16;;;;;;;1.30;0.70;;;32.30;1.90;;;;;;5109976;28;20084;-43
2022/07/12 05:39:42;;;;;;;0.52;0.40;;;32.70;1.10;;;;;;5092959;28;20126;-44
2022/07/12 05:42:08;;;;;;;2.40;0.68;;;33.10;1.00;;;;;;5109682;28;20031;-46
2022/07/12 05:44:33;;;;;;;0.52;0.50;;;33.30;1.00;;;;;;5092051;28;20114;-43
2022/07/12 05:46:59;;;;;;;0.73;0.43;;;33.60;1.00;;;;;;5109380;28;20030;-44
2022/07/12 05:49:24;;;;;;;1.85;0.85;;;33.90;1.00;;;;;;5090402;28;20480;-44
2022/07/12 05:54:33;;;;;;;0.85;0.40;;;34.50;1.00;;;;;;5075636;28;20042;-43
2022/07/12 05:56:59;;;;;;;1.70;0.40;;;34.80;1.00;;;;;;5109466;28;20027;-43
2022/07/12 05:59:24;;;;;;;4.47;0.70;;;35.10;1.00;;;;;;5090409;28;20019;-42
2022/07/12 06:01:50;;;;;;;0.70;0.55;;;35.50;1.00;;;;;;5109357;28;20032;-45
2022/07/12 06:04:15;;;;;;;0.40;0.40;;;35.80;1.00;;;;;;5088961;28;20047;-44
2022/07/12 06:06:41;;;;;;;2.55;0.40;;;36.10;1.00;;;;;;5109184;28;20027;-48
2022/07/12 06:09:06;;;;;;;0.60;0.50;;;36.40;1.00;;;;;;5087751;28;20024;-43
2022/07/12 06:11:33;;;;;;;1.75;0.68;;;36.60;1.00;;;;;;5109321;28;20038;-45
2022/07/12 06:13:58;;;;;;;1.17;0.55;;;36.70;1.00;;;;;;5092159;28;20096;-47
2022/07/12 06:16:24;;;;;;;1.50;0.50;;;37.00;1.00;;;;;;5067758;28;20040;-49
2022/07/12 06:18:50;;;;;;;0.65;0.30;;;37.20;1.00;;;;;;5080349;28;20396;-47
2022/07/12 06:21:15;;;;;;;0.82;0.60;;;37.50;1.00;;;;;;5107957;28;20038;-45
2022/07/12 06:23:40;;;;;;;1.52;0.32;;;37.40;1.00;;;;;;5077209;28;20406;-44
2022/07/12 06:26:06;;;;;;;0.40;0.40;;;37.70;1.00;;;;;;5091647;28;20593;-43
2022/07/12 06:28:31;;;;;;;0.40;0.40;;;38.10;1.00;;;;;;5097705;28;20027;-47
2022/07/12 06:30:57;;;;;;;0.40;0.40;;;38.40;1.00;;;;;;5098819;28;20052;-48
2022/07/12 06:33:22;;;;;;;0.75;0.50;;;38.70;1.00;;;;;;5096097;28;20372;-49
2022/07/12 06:35:48;;;;;;;1.42;0.50;;;38.80;1.00;;;;;;5089475;28;20025;-52
2022/07/12 06:38:13;;;;;;;1.38;0.40;;;39.10;1.00;;;;;;5105821;28;20034;-50
2022/07/12 06:40:39;;;;;;;0.50;0.40;;;39.20;1.00;;;;;;5086071;28;20060;-47
2022/07/12 06:43:11;;;;;;;0.70;0.40;;;39.40;1.00;;;;;;5068214;28;20032;-48
2022/07/12 06:45:37;;;;;;;1.00;0.52;;;39.80;1.00;;;;;;5088675;28;20063;-48
2022/07/12 06:48:04;;;;;;;0.52;0.40;;;40.10;1.00;;;;;;5108728;28;20058;-45
2022/07/12 06:50:30;;;;;;;0.90;0.28;;;40.30;1.00;;;;;;5086807;28;20032;-53
2022/07/12 06:52:55;;;;;;;0.47;0.45;;;40.70;1.00;;;;;;5106407;28;20080;-47
2022/07/12 06:55:21;;;;;;;0.32;0.32;;;41.00;1.00;;;;;;5088055;28;20043;-52
2022/07/12 06:57:46;;;;;;;0.50;0.50;;;41.50;1.00;;;;;;5067744;28;20029;-50
2022/07/12 07:00:12;;;;;;;0.95;0.35;;;41.70;1.00;;;;;;5107355;28;20059;-51
2022/07/12 07:02:39;;;;;;;0.50;0.35;;;41.60;1.00;;;;;;5068975;28;20029;-46
2022/07/12 07:05:05;;;;;;;0.82;0.40;;;41.80;1.00;;;;;;5107949;28;20091;-50
2022/07/12 07:07:30;;;;;;;1.30;0.40;;;42.00;1.00;;;;;;5069906;28;20021;-51
2022/07/12 07:09:56;;;;;;;0.45;0.45;;;41.80;1.00;;;;;;5107232;28;20694;-51
2022/07/12 07:12:21;;;;;;;2.00;0.47;;;41.70;1.00;;;;;;5069258;28;20040;-47
2022/07/12 07:14:47;;;;;;;2.03;0.35;;;41.60;1.00;;;;;;5097293;28;20019;-49
2022/07/12 07:17:16;;;;;;;0.35;0.30;;;41.50;1.00;;;;;;5094832;28;20048;-51
2022/07/12 07:19:41;;;;;;;0.95;0.30;;;41.30;1.00;;;;;;5090658;28;20442;-52
2022/07/12 07:22:07;;;;;;;1.17;0.50;;;41.50;1.00;;;;;;5079122;28;20032;-46
2022/07/12 07:24:32;;;;;;;0.38;0.38;;;41.60;1.00;;;;;;5102524;28;20038;-48
2022/07/12 07:26:58;;;;;;;0.40;0.30;;;41.90;1.00;;;;;;5102188;28;20031;-47
2022/07/12 07:32:07;;;;;;;0.82;0.50;;;42.40;1.00;;;;;;5069286;28;20047;-48
2022/07/12 07:34:33;;;;;;;0.70;0.30;;;42.80;1.00;;;;;;5110904;28;20027;-48
2022/07/12 07:36:58;;;;;;;0.82;0.35;;;43.00;1.00;;;;;;5076342;28;20116;-46
2022/07/12 07:39:23;;;;;;;0.85;0.30;;;42.90;1.00;;;;;;5110410;28;20403;-47
2022/07/12 07:41:49;;;;;;;1.27;0.47;;;42.80;1.00;;;;;;5083967;28;20387;-49
2022/07/12 07:44:14;;;;;;;1.40;0.30;;;43.10;1.00;;;;;;5111605;28;20047;-47
2022/07/12 07:46:40;;;;;;;0.60;0.30;;;43.00;1.00;;;;;;5092640;28;20039;-47
2022/07/12 07:49:05;;;;;;;0.30;0.30;;;43.20;1.00;;;;;;5111863;28;20035;-48
2022/07/12 07:51:31;;;;;;;0.28;0.20;;;43.30;1.00;;;;;;5091501;28;20365;-47
2022/07/12 07:53:56;;;;;;;0.50;0.40;;;42.80;1.00;;;;;;5111570;28;20111;-46
2022/07/12 07:56:22;;;;;;;0.63;0.30;;;42.40;1.00;;;;;;5089924;28;20404;-46
2022/07/12 07:58:47;;;;;;;1.27;0.52;;;42.00;1.00;;;;;;5111839;28;20433;-47
2022/07/12 08:01:13;;;;;;;0.95;0.50;;;41.30;1.00;;;;;;5091884;28;20036;-46
2022/07/12 08:03:39;;;;;;;0.75;0.40;;;41.10;1.00;;;;;;5069629;28;20111;-46
2022/07/12 08:06:04;;;;;;;0.60;0.40;;;41.40;1.00;;;;;;5110340;28;20027;-48
2022/07/12 08:08:30;;;;;;;0.80;0.50;;;41.90;1.00;;;;;;5071195;28;20522;-51
2022/07/12 08:10:56;;;;;;;1.00;0.40;;;41.90;1.00;;;;;;5109977;28;20038;-52
2022/07/12 08:13:22;;;;;;;2.10;0.30;;;41.70;1.00;;;;;;5075131;28;20626;-48
2022/07/12 08:15:48;;;;;;;0.40;0.40;;;41.60;1.00;;;;;;5104175;28;20027;-49
2022/07/12 08:18:13;;;;;;;0.20;0.20;;;40.70;1.00;;;;;;5082726;28;20040;-52
2022/07/12 08:20:39;;;;;;;0.50;0.30;;;40.50;1.00;;;;;;5090627;28;20381;-51
2022/07/12 08:23:04;;;;;;;0.70;0.30;;;40.50;1.00;;;;;;5078167;28;20157;-47
2022/07/12 08:25:30;;;;;;;0.30;0.20;;;40.10;1.00;;;;;;5093162;28;20036;-46
2022/07/12 08:27:56;;;;;;;2.20;0.40;;;39.70;1.00;;;;;;5091264;28;20027;-53
2022/07/12 08:30:22;;;;;;;0.20;0.20;;;39.50;1.00;;;;;;5104159;28;20040;-49
2022/07/12 08:32:47;;;;;;;0.38;0.28;;;39.30;1.00;;;;;;5108957;28;20495;-53
2022/07/12 08:35:14;;;;;;;0.38;0.30;;;38.20;1.00;;;;;;5091180;28;20079;-51
2022/07/12 08:37:40;;;;;;;1.02;0.32;;;37.60;1.00;;;;;;5108203;28;20146;-48
2022/07/12 08:40:09;;;;;;;0.70;0.50;;;35.80;1.00;;;;;;5110793;28;20020;-51
2022/07/12 08:42:35;;;;;;;1.63;0.35;;;35.20;1.00;;;;;;5094976;28;20027;-49
2022/07/12 08:45:01;;;;;;;0.70;0.40;;;35.40;1.00;;;;;;5110791;28;20038;-54
2022/07/12 08:47:27;;;;;;;0.60;0.30;;;35.80;1.00;;;;;;5093594;28;20024;-46
2022/07/12 08:50:13;;;;;;;0.20;0.20;;;36.10;1.00;;;;;;5110721;28;20456;-47
2022/07/12 08:52:44;;;;;;;0.82;0.32;;;35.50;1.00;;;;;;5094784;28;20036;-48
2022/07/12 08:55:18;;;;;;;0.30;0.30;;;35.10;1.00;;;;;;5110643;28;20077;-51
2022/07/12 08:57:43;;;;;;;0.68;0.43;;;34.60;1.00;;;;;;5090048;28;20076;-49
2022/07/12 09:00:09;;;;;;;0.35;0.35;;;34.20;1.00;;;;;;5089406;28;20036;-52
2022/07/12 09:02:55;;;;;;;0.60;0.32;;;34.10;1.00;;;;;;5107016;28;20031;-52
2022/07/12 09:05:27;;;;;;;1.02;0.57;;;34.20;1.00;;;;;;5068895;28;20428;-47
2022/07/12 09:08:02;;;;;;;0.40;0.40;;;34.10;1.00;;;;;;5083031;28;20029;-48
2022/07/12 09:10:28;;;;;;;0.63;0.40;;;34.10;1.00;;;;;;5069596;28;20031;-47
2022/07/12 09:12:54;;;;;;;1.00;0.30;;;34.20;1.00;;;;;;5081677;28;20033;-46
2022/07/12 09:15:22;;;;;;;0.75;0.30;;;34.10;1.00;;;;;;5101929;28;20020;-50
2022/07/12 09:18:12;;;;;;;0.52;0.40;;;34.00;1.00;;;;;;5076505;28;20504;-50
2022/07/12 09:20:38;;;;;;;0.35;0.35;;;33.70;1.00;;;;;;5069022;28;20067;-49
2022/07/12 09:23:09;;;;;;;0.68;0.40;;;33.50;1.00;;;;;;5079016;28;20067;-50
2022/07/12 09:25:35;;;;;;;0.30;0.30;;;33.50;1.00;;;;;;5086546;28;20042;-51
2022/07/12 09:28:04;;;;;;;0.20;0.10;;;33.60;1.00;;;;;;5079647;28;20032;-46
2022/07/12 09:30:30;;;;;;;0.55;0.35;;;33.80;1.00;;;;;;5102908;28;20042;-47
2022/07/12 09:36:10;;;;;;;2.30;0.30;;;34.10;1.00;;;;;;5069417;28;20051;-48
2022/07/12 09:38:38;;;;;;;0.88;0.47;;;34.50;1.00;;;;;;5067283;28;20086;-50
2022/07/12 09:41:07;;;;;;;0.88;0.30;;;34.30;1.00;;;;;;5108774;28;20034;-47
2022/07/12 09:43:33;;;;;;;1.52;0.50;;;33.80;1.00;;;;;;5067156;28;20500;-51
2022/07/12 09:45:59;;;;;;;0.70;0.40;;;33.00;1.00;;;;;;5087923;28;20035;-51
2022/07/12 09:48:28;;;;;;;0.35;0.35;;;32.70;1.00;;;;;;5108826;28;20054;-46
2022/07/12 09:50:56;;;;;;;1.42;0.43;;;32.60;1.00;;;;;;5067086;28;20082;-48
2022/07/12 09:53:28;;;;;;;0.57;0.30;;;32.50;1.00;;;;;;5108691;28;20033;-46
2022/07/12 09:55:54;;;;;;;1.27;0.32;;;32.50;1.00;;;;;;5066975;28;20036;-46
2022/07/12 09:58:31;;;;;;;0.90;0.43;;;32.40;1.00;;;;;;5108153;28;20061;-49
2022/07/12 10:00:59;;;;;;;0.93;0.43;;;32.40;1.00;;;;;;5068808;28;20017;-48
2022/07/12 10:03:29;;;;;;;1.00;0.65;;;32.10;1.00;;;;;;5108606;28;20044;-48
2022/07/12 10:05:55;;;;;;;0.85;0.57;;;31.90;1.00;;;;;;5066892;28;20077;-48
2022/07/12 10:08:21;;;;;;;0.52;0.30;;;31.40;1.00;;;;;;5071673;28;20040;-46
2022/07/12 10:10:49;;;;;;;0.88;0.40;;;31.20;1.00;;;;;;5107955;28;20130;-47
2022/07/12 10:13:15;;;;;;;0.75;0.40;;;31.10;1.00;;;;;;5071123;28;20032;-51
2022/07/12 10:15:45;;;;;;;1.20;0.68;;;31.10;1.00;;;;;;5101641;28;20024;-47
2022/07/12 10:18:16;;;;;;;0.70;0.50;;;30.70;1.00;;;;;;5071193;28;20024;-50
2022/07/12 10:20:43;;;;;;;2.17;0.57;;;30.20;1.00;;;;;;5088504;28;20024;-48
2022/07/12 10:23:34;;;;;;;1.23;0.60;;;30.00;1.00;;;;;;5075337;28;20396;-45
2022/07/12 10:26:01;;;;;;;1.52;0.90;;;29.60;1.00;;;;;;5072449;28;20074;-46
2022/07/12 10:28:56;;;;;;;0.43;0.30;;;29.20;1.00;;;;;;5069108;28;20028;-51
2022/07/12 10:31:28;;;;;;;0.93;0.67;;;29.00;1.00;;;;;;5092825;28;20044;-48
2022/07/12 10:34:21;;;;;;;1.27;0.60;;;28.70;1.00;;;;;;5108725;28;20281;-46
2022/07/12 10:36:56;;;;;;;0.68;0.50;;;28.70;1.00;;;;;;5073381;28;20047;-46
2022/07/12 10:39:26;;;;;;;2.38;0.40;;;28.90;1.00;;;;;;5108512;28;20110;-50
2022/07/12 10:42:05;;;;;;;0.70;0.50;;;28.90;1.00;;;;;;5091423;28;20035;-49
2022/07/12 10:44:39;;;;;;;1.95;0.57;;;29.10;1.00;;;;;;5108621;28;20045;-50
2022/07/12 10:47:06;;;;;;;0.63;0.40;;;29.20;1.00;;;;;;5093011;28;20445;-50
2022/07/12 10:49:33;;;;;;;1.33;0.60;;;29.20;1.00;;;;;;5109043;28;20066;-46
2022/07/12 10:52:11;;;;;;;1.33;0.52;;;29.10;1.00;;;;;;5091670;28;20119;-50
2022/07/12 10:54:40;;;;;;;2.22;0.40;;;28.90;1.00;;;;;;5111236;28;20071;-52
2022/07/12 10:57:06;;;;;;;2.95;0.80;;;29.00;1.00;;;;;;5097441;28;20111;-49
2022/07/12 10:59:36;;;;;;;0.68;0.30;;;28.80;1.00;;;;;;5098105;28;20111;-51
2022/07/12 11:02:02;;;;;;;0.95;0.38;;;28.80;1.00;;;;;;5078425;28;20036;-50
2022/07/12 11:04:28;;;;;;;0.65;0.50;;;28.80;1.00;;;;;;5100665;28;20047;-51
2022/07/12 11:06:56;;;;;;;0.50;0.50;;;28.80;1.00;;;;;;5079400;28;20090;-49
2022/07/12 11:09:22;;;;;;;0.40;0.40;;;28.70;1.00;;;;;;5092085;28;20034;-47
2022/07/12 11:11:50;;;;;;;0.73;0.30;;;28.60;1.00;;;;;;5078793;28;20524;-47
2022/07/12 11:14:29;;;;;;;0.63;0.38;;;28.60;1.00;;;;;;5084785;28;20093;-48
2022/07/12 11:16:56;;;;;;;0.57;0.30;;;28.60;1.00;;;;;;5068842;28;20025;-47
2022/07/12 11:19:24;;;;;;;1.02;0.40;;;28.80;1.00;;;;;;5091812;28;20059;-46
2022/07/12 11:21:57;;;;;;;0.47;0.30;;;28.70;1.00;;;;;;5077585;28;20040;-47
2022/07/12 11:24:30;;;;;;;0.50;0.50;;;28.50;1.00;;;;;;5082198;28;20119;-46
2022/07/12 11:26:56;;;;;;;0.70;0.40;;;28.30;1.00;;;;;;5078320;28;20028;-48
2022/07/12 11:29:23;;;;;;;0.65;0.40;;;28.30;1.00;;;;;;5088596;28;20031;-45
2022/07/12 11:31:49;;;;;;;0.52;0.38;;;28.40;1.00;;;;;;5069624;28;20066;-45
2022/07/12 11:34:25;;;;;;;2.17;0.57;;;28.50;1.00;;;;;;5083474;28;20071;-46
2022/07/12 11:36:55;;;;;;;0.43;0.32;;;28.20;1.00;;;;;;5068723;28;20500;-49
2022/07/12 11:39:37;;;;;;;0.82;0.47;;;28.00;1.00;;;;;;5079743;28;20551;-47
2022/07/12 11:42:05;;;;;;;1.73;0.40;;;27.80;1.00;;;;;;5068635;28;20029;-46
2022/07/12 11:44:47;;;;;;;0.47;0.30;;;27.50;1.00;;;;;;5073949;28;20040;-47
2022/07/12 11:47:18;;;;;;;1.73;0.50;;;27.60;1.00;;;;;;5067994;28;20033;-46
2022/07/12 11:49:52;;;;;;;1.77;0.43;;;27.50;1.00;;;;;;5092757;28;20043;-46
2022/07/12 11:52:19;;;;;;;1.38;0.43;;;27.60;1.00;;;;;;5068329;28;20051;-46
2022/07/12 11:54:46;;;;;;;0.60;0.50;;;27.80;1.00;;;;;;5103992;28;20514;-46
2022/07/12 11:57:13;;;;;;;1.95;0.50;;;27.70;1.00;;;;;;5077930;28;20435;-46
2022/07/12 11:59:39;;;;;;;0.50;0.50;;;27.80;1.00;;;;;;5099810;28;20039;-46
2022/07/12 12:02:10;;;;;;;0.80;0.50;;;27.80;1.00;;;;;;5084023;28;20044;-46
2022/07/12 12:04:53;;;;;;;0.93;0.50;;;27.90;1.00;;;;;;5081218;28;20451;-47
2022/07/12 12:07:21;;;;;;;0.88;0.55;;;28.00;1.00;;;;;;5068449;28;20453;-46
2022/07/12 12:10:09;;;;;;;0.75;0.38;;;28.10;1.00;;;;;;5091621;28;20139;-46
2022/07/12 12:12:36;;;;;;;3.05;0.60;;;28.10;1.00;;;;;;5068076;28;20028;-45
2022/07/12 12:15:08;;;;;;;0.57;0.40;;;28.10;1.00;;;;;;5075241;28;20040;-48
2022/07/12 12:17:34;;;;;;;0.73;0.52;;;28.20;1.00;;;;;;5066458;28;20089;-46
2022/07/12 12:20:11;;;;;;;0.68;0.57;;;28.50;1.00;;;;;;5077618;28;20043;-45
2022/07/12 12:22:38;;;;;;;1.95;0.50;;;28.50;1.00;;;;;;5079201;28;20111;-47
2022/07/12 12:25:05;;;;;;;0.43;0.40;;;28.50;1.00;;;;;;5088601;28;20032;-50
2022/07/12 12:27:31;;;;;;;0.77;0.45;;;28.50;1.00;;;;;;5079095;28;20397;-48
2022/07/12 12:30:07;;;;;;;1.20;0.50;;;28.50;1.00;;;;;;5088860;28;20029;-45
2022/07/12 12:32:50;;;;;;;2.67;0.80;;;28.60;1.00;;;;;;5067753;28;20043;-53
2022/07/12 12:35:18;;;;;;;1.95;0.60;;;28.10;1.00;;;;;;5069144;28;20058;-45
2022/07/12 12:37:51;;;;;;;0.90;0.30;;;28.00;1.00;;;;;;5073615;28;20025;-49
2022/07/12 12:40:24;;;;;;;1.33;0.60;;;28.00;1.00;;;;;;5085633;28;20028;-41
2022/07/12 12:42:50;;;;;;;1.05;0.32;;;28.10;1.00;;;;;;5069413;27;20403;-41
2022/07/12 12:45:20;;;;;;;1.88;0.40;;;28.20;1.00;;;;;;5083495;28;20021;-44
2022/07/12 12:47:58;;;;;;;0.77;0.70;;;28.40;1.00;;;;;;5068638;28;20012;-44
2022/07/12 12:50:44;;;;;;;1.88;0.30;;;28.30;1.00;;;;;;5079728;28;20549;-45
2022/07/12 12:53:22;;;;;;;1.58;0.45;;;28.30;1.00;;;;;;5067627;28;20072;-46
2022/07/12 12:55:53;;;;;;;1.95;0.60;;;28.40;1.00;;;;;;5070480;28;20028;-44
2022/07/12 12:58:20;;;;;;;0.50;0.50;;;28.50;1.00;;;;;;5067773;28;20063;-42
2022/07/12 13:00:49;;;;;;;1.02;0.50;;;28.50;1.00;;;;;;5077628;28;20230;-45
2022/07/12 13:03:17;;;;;;;2.05;0.45;;;28.70;1.00;;;;;;5080147;28;20622;-50